sensor_id;sensor_type;location;lat;lon;timestamp;temperature;humidity
66726;HTU21D;53638;51.062;5.804;2023-04-03T00:01:16;4.67;118.99
66726;HTU21D;53638;51.062;5.804;2023-04-03T00:03:42;4.66;118.99
66726;HTU21D;53638;51.062;5.804;2023-04-03T00:06:09;4.62;118.99
66726;HTU21D;53638;51.062;5.804;2023-04-03T00:08:37;4.60;118.99
66726;HTU21D;53638;51.062;5.804;2023-04-03T00:11:04;4.59;118.99
66726;HTU21D;53638;51.062;5.804;2023-04-03T00:13:31;4.52;118.99
66726;HTU21D;53638;51.062;5.804;2023-04-03T00:15:56;4.49;118.99
66726;HTU21D;53638;51.062;5.804;2023-04-03T00:18:22;4.49;118.99
66726;HTU21D;53638;51.062;5.804;2023-04-03T00:20:49;4.49;118.99
66726;HTU21D;53638;51.062;5.804;2023-04-03T00:23:15;4.48;118.99
66726;HTU21D;53638;51.062;5.804;2023-04-03T00:25:41;4.46;118.99
66726;HTU21D;53638;51.062;5.804;2023-04-03T00:28:07;4.44;118.99
66726;HTU21D;53638;51.062;5.804;2023-04-03T00:30:33;4.41;118.99
66726;HTU21D;53638;51.062;5.804;2023-04-03T00:33:00;4.38;118.99
66726;HTU21D;53638;51.062;5.804;2023-04-03T00:35:26;4.36;118.99
66726;HTU21D;53638;51.062;5.804;2023-04-03T00:37:53;4.36;118.99
66726;HTU21D;53638;51.062;5.804;2023-04-03T00:40:21;4.31;118.99
66726;HTU21D;53638;51.062;5.804;2023-04-03T00:42:50;4.30;118.99
66726;HTU21D;53638;51.062;5.804;2023-04-03T00:47:44;4.24;118.99
66726;HTU21D;53638;51.062;5.804;2023-04-03T00:50:10;4.21;118.99
66726;HTU21D;53638;51.062;5.804;2023-04-03T00:52:37;4.20;118.99
66726;HTU21D;53638;51.062;5.804;2023-04-03T00:55:08;4.17;118.99
66726;HTU21D;53638;51.062;5.804;2023-04-03T00:57:35;4.14;118.99
66726;HTU21D;53638;51.062;5.804;2023-04-03T01:00:06;4.10;118.99
66726;HTU21D;53638;51.062;5.804;2023-04-03T01:02:34;4.10;118.99
66726;HTU21D;53638;51.062;5.804;2023-04-03T01:05:01;4.09;118.99
66726;HTU21D;53638;51.062;5.804;2023-04-03T01:07:29;4.08;118.99
66726;HTU21D;53638;51.062;5.804;2023-04-03T01:09:59;4.10;118.99
66726;HTU21D;53638;51.062;5.804;2023-04-03T01:12:31;4.12;118.99
66726;HTU21D;53638;51.062;5.804;2023-04-03T01:15:00;4.14;118.99
66726;HTU21D;53638;51.062;5.804;2023-04-03T01:17:38;4.16;118.99
66726;HTU21D;53638;51.062;5.804;2023-04-03T01:25:22;4.13;118.99
66726;HTU21D;53638;51.062;5.804;2023-04-03T01:27:49;4.13;118.99
66726;HTU21D;53638;51.062;5.804;2023-04-03T01:30:18;4.13;118.99
66726;HTU21D;53638;51.062;5.804;2023-04-03T01:32:44;4.15;118.99
66726;HTU21D;53638;51.062;5.804;2023-04-03T01:35:12;4.15;118.99
66726;HTU21D;53638;51.062;5.804;2023-04-03T01:37:38;4.15;118.99
66726;HTU21D;53638;51.062;5.804;2023-04-03T01:40:05;4.12;118.99
66726;HTU21D;53638;51.062;5.804;2023-04-03T01:42:32;4.07;118.99
66726;HTU21D;53638;51.062;5.804;2023-04-03T01:44:58;4.06;118.99
66726;HTU21D;53638;51.062;5.804;2023-04-03T01:47:24;4.02;118.99
66726;HTU21D;53638;51.062;5.804;2023-04-03T01:49:50;4.01;118.99
66726;HTU21D;53638;51.062;5.804;2023-04-03T01:52:16;4.01;118.99
66726;HTU21D;53638;51.062;5.804;2023-04-03T01:54:42;3.99;118.99
66726;HTU21D;53638;51.062;5.804;2023-04-03T01:57:08;3.98;118.99
66726;HTU21D;53638;51.062;5.804;2023-04-03T01:59:34;3.95;118.99
66726;HTU21D;53638;51.062;5.804;2023-04-03T02:02:00;3.91;118.99
66726;HTU21D;53638;51.062;5.804;2023-04-03T02:04:26;3.89;118.99
66726;HTU21D;53638;51.062;5.804;2023-04-03T02:06:53;3.82;118.99
66726;HTU21D;53638;51.062;5.804;2023-04-03T02:09:18;3.75;118.99
66726;HTU21D;53638;51.062;5.804;2023-04-03T02:11:44;3.69;118.99
66726;HTU21D;53638;51.062;5.804;2023-04-03T02:14:10;3.65;118.99
66726;HTU21D;53638;51.062;5.804;2023-04-03T02:16:36;3.61;118.99
66726;HTU21D;53638;51.062;5.804;2023-04-03T02:19:02;3.61;118.99
66726;HTU21D;53638;51.062;5.804;2023-04-03T02:21:29;3.58;118.99
66726;HTU21D;53638;51.062;5.804;2023-04-03T02:23:55;3.53;118.99
66726;HTU21D;53638;51.062;5.804;2023-04-03T02:26:23;3.50;118.99
66726;HTU21D;53638;51.062;5.804;2023-04-03T02:28:48;3.44;118.99
66726;HTU21D;53638;51.062;5.804;2023-04-03T02:31:14;3.42;118.99
66726;HTU21D;53638;51.062;5.804;2023-04-03T02:33:42;3.35;118.99
66726;HTU21D;53638;51.062;5.804;2023-04-03T02:36:10;3.31;118.99
66726;HTU21D;53638;51.062;5.804;2023-04-03T02:38:38;3.35;118.99
66726;HTU21D;53638;51.062;5.804;2023-04-03T02:41:06;3.29;118.99
66726;HTU21D;53638;51.062;5.804;2023-04-03T02:43:33;3.31;118.99
66726;HTU21D;53638;51.062;5.804;2023-04-03T02:46:00;3.31;118.99
66726;HTU21D;53638;51.062;5.804;2023-04-03T02:48:29;3.33;118.99
66726;HTU21D;53638;51.062;5.804;2023-04-03T02:50:55;3.34;118.99
66726;HTU21D;53638;51.062;5.804;2023-04-03T02:53:21;3.38;118.99
66726;HTU21D;53638;51.062;5.804;2023-04-03T02:55:49;3.38;118.99
66726;HTU21D;53638;51.062;5.804;2023-04-03T02:58:15;3.38;118.99
66726;HTU21D;53638;51.062;5.804;2023-04-03T03:00:41;3.41;118.99
66726;HTU21D;53638;51.062;5.804;2023-04-03T03:03:08;3.42;118.99
66726;HTU21D;53638;51.062;5.804;2023-04-03T03:05:33;3.45;118.99
66726;HTU21D;53638;51.062;5.804;2023-04-03T03:07:59;3.45;118.99
66726;HTU21D;53638;51.062;5.804;2023-04-03T03:10:25;3.45;118.99
66726;HTU21D;53638;51.062;5.804;2023-04-03T03:12:51;3.47;118.99
66726;HTU21D;53638;51.062;5.804;2023-04-03T03:15:17;3.49;118.99
66726;HTU21D;53638;51.062;5.804;2023-04-03T03:17:44;3.54;118.99
66726;HTU21D;53638;51.062;5.804;2023-04-03T03:20:11;3.58;118.99
66726;HTU21D;53638;51.062;5.804;2023-04-03T03:22:40;3.56;118.99
66726;HTU21D;53638;51.062;5.804;2023-04-03T03:25:08;3.53;118.99
66726;HTU21D;53638;51.062;5.804;2023-04-03T03:27:34;3.50;118.99
66726;HTU21D;53638;51.062;5.804;2023-04-03T03:30:00;3.49;118.99
66726;HTU21D;53638;51.062;5.804;2023-04-03T03:32:26;3.48;118.99
66726;HTU21D;53638;51.062;5.804;2023-04-03T03:34:52;3.50;118.99
66726;HTU21D;53638;51.062;5.804;2023-04-03T03:37:17;3.49;118.99
66726;HTU21D;53638;51.062;5.804;2023-04-03T03:39:43;3.49;118.99
66726;HTU21D;53638;51.062;5.804;2023-04-03T03:42:09;3.48;118.99
66726;HTU21D;53638;51.062;5.804;2023-04-03T03:44:35;3.46;118.99
66726;HTU21D;53638;51.062;5.804;2023-04-03T03:47:01;3.42;118.99
66726;HTU21D;53638;51.062;5.804;2023-04-03T03:49:28;3.41;118.99
66726;HTU21D;53638;51.062;5.804;2023-04-03T03:51:54;3.39;118.99
66726;HTU21D;53638;51.062;5.804;2023-04-03T03:54:21;3.38;118.99
66726;HTU21D;53638;51.062;5.804;2023-04-03T03:56:47;3.31;118.99
66726;HTU21D;53638;51.062;5.804;2023-04-03T03:59:13;3.27;118.99
66726;HTU21D;53638;51.062;5.804;2023-04-03T04:01:40;3.24;118.99
66726;HTU21D;53638;51.062;5.804;2023-04-03T04:04:06;3.21;118.99
66726;HTU21D;53638;51.062;5.804;2023-04-03T04:06:32;3.19;118.99
66726;HTU21D;53638;51.062;5.804;2023-04-03T04:09:03;3.19;118.99
66726;HTU21D;53638;51.062;5.804;2023-04-03T04:11:29;3.19;118.99
66726;HTU21D;53638;51.062;5.804;2023-04-03T04:13:55;3.18;118.99
66726;HTU21D;53638;51.062;5.804;2023-04-03T04:16:24;3.17;118.99
66726;HTU21D;53638;51.062;5.804;2023-04-03T04:18:51;3.15;118.99
66726;HTU21D;53638;51.062;5.804;2023-04-03T04:21:18;3.12;118.99
66726;HTU21D;53638;51.062;5.804;2023-04-03T04:23:45;3.11;118.99
66726;HTU21D;53638;51.062;5.804;2023-04-03T04:26:12;3.10;118.99
66726;HTU21D;53638;51.062;5.804;2023-04-03T04:28:39;3.03;118.99
66726;HTU21D;53638;51.062;5.804;2023-04-03T04:31:06;3.02;118.99
66726;HTU21D;53638;51.062;5.804;2023-04-03T04:33:32;3.01;118.99
66726;HTU21D;53638;51.062;5.804;2023-04-03T04:36:00;3.02;118.99
66726;HTU21D;53638;51.062;5.804;2023-04-03T04:38:26;3.03;118.99
66726;HTU21D;53638;51.062;5.804;2023-04-03T04:40:53;3.02;118.99
66726;HTU21D;53638;51.062;5.804;2023-04-03T04:43:19;2.98;118.99
66726;HTU21D;53638;51.062;5.804;2023-04-03T04:45:47;2.96;118.99
66726;HTU21D;53638;51.062;5.804;2023-04-03T04:48:16;2.88;118.99
66726;HTU21D;53638;51.062;5.804;2023-04-03T04:50:42;2.84;118.99
66726;HTU21D;53638;51.062;5.804;2023-04-03T04:53:08;2.83;118.99
66726;HTU21D;53638;51.062;5.804;2023-04-03T04:55:34;2.81;118.99
66726;HTU21D;53638;51.062;5.804;2023-04-03T04:58:00;2.79;118.99
66726;HTU21D;53638;51.062;5.804;2023-04-03T05:00:29;2.83;118.99
66726;HTU21D;53638;51.062;5.804;2023-04-03T05:02:55;2.82;118.99
66726;HTU21D;53638;51.062;5.804;2023-04-03T05:05:21;2.83;118.99
66726;HTU21D;53638;51.062;5.804;2023-04-03T05:07:48;2.85;118.99
66726;HTU21D;53638;51.062;5.804;2023-04-03T05:10:14;2.86;118.99
66726;HTU21D;53638;51.062;5.804;2023-04-03T05:12:41;2.84;118.99
66726;HTU21D;53638;51.062;5.804;2023-04-03T05:15:08;2.85;118.99
66726;HTU21D;53638;51.062;5.804;2023-04-03T05:17:34;2.85;118.99
66726;HTU21D;53638;51.062;5.804;2023-04-03T05:20:02;2.83;118.99
66726;HTU21D;53638;51.062;5.804;2023-04-03T05:22:29;2.80;118.99
66726;HTU21D;53638;51.062;5.804;2023-04-03T05:25:01;2.79;118.99
66726;HTU21D;53638;51.062;5.804;2023-04-03T05:27:27;2.80;118.99
66726;HTU21D;53638;51.062;5.804;2023-04-03T05:29:56;2.81;118.99
66726;HTU21D;53638;51.062;5.804;2023-04-03T05:32:23;2.83;118.99
66726;HTU21D;53638;51.062;5.804;2023-04-03T05:34:57;2.85;118.99
66726;HTU21D;53638;51.062;5.804;2023-04-03T05:37:23;2.90;118.99
66726;HTU21D;53638;51.062;5.804;2023-04-03T05:39:51;2.95;118.99
66726;HTU21D;53638;51.062;5.804;2023-04-03T05:42:16;2.99;118.99
66726;HTU21D;53638;51.062;5.804;2023-04-03T05:44:42;3.04;118.99
66726;HTU21D;53638;51.062;5.804;2023-04-03T05:47:10;3.11;118.99
66726;HTU21D;53638;51.062;5.804;2023-04-03T05:49:36;3.14;118.99
66726;HTU21D;53638;51.062;5.804;2023-04-03T05:52:20;3.16;118.99
66726;HTU21D;53638;51.062;5.804;2023-04-03T05:54:47;3.19;118.99
66726;HTU21D;53638;51.062;5.804;2023-04-03T05:57:19;3.24;118.99
66726;HTU21D;53638;51.062;5.804;2023-04-03T05:59:46;3.28;118.99
66726;HTU21D;53638;51.062;5.804;2023-04-03T06:02:16;3.33;118.99
66726;HTU21D;53638;51.062;5.804;2023-04-03T06:04:43;3.36;118.99
66726;HTU21D;53638;51.062;5.804;2023-04-03T06:07:13;3.36;118.99
66726;HTU21D;53638;51.062;5.804;2023-04-03T06:09:39;3.40;118.99
66726;HTU21D;53638;51.062;5.804;2023-04-03T06:12:05;3.38;118.99
66726;HTU21D;53638;51.062;5.804;2023-04-03T06:14:31;3.39;118.99
66726;HTU21D;53638;51.062;5.804;2023-04-03T06:16:57;3.41;118.99
66726;HTU21D;53638;51.062;5.804;2023-04-03T06:19:23;3.44;118.99
66726;HTU21D;53638;51.062;5.804;2023-04-03T06:21:52;3.44;118.99
66726;HTU21D;53638;51.062;5.804;2023-04-03T06:24:19;3.45;118.99
66726;HTU21D;53638;51.062;5.804;2023-04-03T06:26:47;3.45;118.99
66726;HTU21D;53638;51.062;5.804;2023-04-03T06:29:14;3.47;118.99
66726;HTU21D;53638;51.062;5.804;2023-04-03T06:31:40;3.49;118.99
66726;HTU21D;53638;51.062;5.804;2023-04-03T06:34:06;3.55;118.99
66726;HTU21D;53638;51.062;5.804;2023-04-03T06:36:33;3.60;118.99
66726;HTU21D;53638;51.062;5.804;2023-04-03T06:39:00;3.67;118.99
66726;HTU21D;53638;51.062;5.804;2023-04-03T06:41:27;3.67;118.99
66726;HTU21D;53638;51.062;5.804;2023-04-03T06:43:53;3.71;118.99
66726;HTU21D;53638;51.062;5.804;2023-04-03T06:46:21;3.73;118.99
66726;HTU21D;53638;51.062;5.804;2023-04-03T06:48:49;3.77;118.99
66726;HTU21D;53638;51.062;5.804;2023-04-03T06:51:19;3.79;118.99
66726;HTU21D;53638;51.062;5.804;2023-04-03T06:53:46;3.80;118.99
66726;HTU21D;53638;51.062;5.804;2023-04-03T06:56:12;3.85;118.99
66726;HTU21D;53638;51.062;5.804;2023-04-03T06:58:39;3.86;118.99
66726;HTU21D;53638;51.062;5.804;2023-04-03T07:01:05;3.88;118.99
66726;HTU21D;53638;51.062;5.804;2023-04-03T07:03:31;3.92;118.99
66726;HTU21D;53638;51.062;5.804;2023-04-03T07:05:56;3.92;118.99
66726;HTU21D;53638;51.062;5.804;2023-04-03T07:08:22;3.93;118.99
66726;HTU21D;53638;51.062;5.804;2023-04-03T07:10:49;3.99;118.99
66726;HTU21D;53638;51.062;5.804;2023-04-03T07:13:16;4.05;118.99
66726;HTU21D;53638;51.062;5.804;2023-04-03T07:15:41;4.07;118.99
66726;HTU21D;53638;51.062;5.804;2023-04-03T07:18:07;4.13;118.99
66726;HTU21D;53638;51.062;5.804;2023-04-03T07:20:33;4.15;118.99
66726;HTU21D;53638;51.062;5.804;2023-04-03T07:22:59;4.19;118.99
66726;HTU21D;53638;51.062;5.804;2023-04-03T07:25:28;4.24;118.99
66726;HTU21D;53638;51.062;5.804;2023-04-03T07:27:57;4.32;118.99
66726;HTU21D;53638;51.062;5.804;2023-04-03T07:30:23;4.33;118.99
66726;HTU21D;53638;51.062;5.804;2023-04-03T07:32:49;4.42;118.99
66726;HTU21D;53638;51.062;5.804;2023-04-03T07:35:15;4.50;118.99
66726;HTU21D;53638;51.062;5.804;2023-04-03T07:37:42;4.56;118.99
66726;HTU21D;53638;51.062;5.804;2023-04-03T07:40:08;4.63;118.99
66726;HTU21D;53638;51.062;5.804;2023-04-03T07:42:34;4.68;118.99
66726;HTU21D;53638;51.062;5.804;2023-04-03T07:45:01;4.77;118.99
66726;HTU21D;53638;51.062;5.804;2023-04-03T07:47:27;4.81;118.99
66726;HTU21D;53638;51.062;5.804;2023-04-03T07:49:53;4.84;118.99
66726;HTU21D;53638;51.062;5.804;2023-04-03T07:52:19;4.88;118.99
66726;HTU21D;53638;51.062;5.804;2023-04-03T07:54:45;4.93;118.99
66726;HTU21D;53638;51.062;5.804;2023-04-03T07:57:11;4.96;118.99
66726;HTU21D;53638;51.062;5.804;2023-04-03T07:59:37;5.00;118.99
66726;HTU21D;53638;51.062;5.804;2023-04-03T08:02:03;5.07;118.99
66726;HTU21D;53638;51.062;5.804;2023-04-03T08:04:30;5.12;118.99
66726;HTU21D;53638;51.062;5.804;2023-04-03T08:06:56;5.15;118.99
66726;HTU21D;53638;51.062;5.804;2023-04-03T08:09:22;5.23;118.99
66726;HTU21D;53638;51.062;5.804;2023-04-03T08:11:48;5.24;118.99
66726;HTU21D;53638;51.062;5.804;2023-04-03T08:14:14;5.32;118.99
66726;HTU21D;53638;51.062;5.804;2023-04-03T08:16:44;5.41;118.99
66726;HTU21D;53638;51.062;5.804;2023-04-03T08:19:11;5.48;118.99
66726;HTU21D;53638;51.062;5.804;2023-04-03T08:21:40;5.54;118.99
66726;HTU21D;53638;51.062;5.804;2023-04-03T08:24:08;5.59;118.99
66726;HTU21D;53638;51.062;5.804;2023-04-03T08:26:34;5.63;118.99
66726;HTU21D;53638;51.062;5.804;2023-04-03T08:29:00;5.63;118.99
66726;HTU21D;53638;51.062;5.804;2023-04-03T08:31:27;5.71;118.99
66726;HTU21D;53638;51.062;5.804;2023-04-03T08:33:53;5.72;118.99
66726;HTU21D;53638;51.062;5.804;2023-04-03T08:36:22;5.81;118.99
66726;HTU21D;53638;51.062;5.804;2023-04-03T08:38:50;5.83;118.99
66726;HTU21D;53638;51.062;5.804;2023-04-03T08:44:22;5.96;118.99
66726;HTU21D;53638;51.062;5.804;2023-04-03T08:47:10;6.02;118.99
66726;HTU21D;53638;51.062;5.804;2023-04-03T08:49:47;6.07;118.99
66726;HTU21D;53638;51.062;5.804;2023-04-03T08:52:20;6.11;118.99
66726;HTU21D;53638;51.062;5.804;2023-04-03T08:54:52;6.17;118.99
66726;HTU21D;53638;51.062;5.804;2023-04-03T08:59:53;6.19;118.99
66726;HTU21D;53638;51.062;5.804;2023-04-03T09:02:29;6.26;118.99
66726;HTU21D;53638;51.062;5.804;2023-04-03T09:04:58;6.30;118.99
66726;HTU21D;53638;51.062;5.804;2023-04-03T09:07:36;6.34;118.99
66726;HTU21D;53638;51.062;5.804;2023-04-03T09:10:03;6.44;118.99
66726;HTU21D;53638;51.062;5.804;2023-04-03T09:12:37;6.52;118.99
66726;HTU21D;53638;51.062;5.804;2023-04-03T09:15:19;6.58;118.99
66726;HTU21D;53638;51.062;5.804;2023-04-03T09:18:15;6.67;118.99
66726;HTU21D;53638;51.062;5.804;2023-04-03T09:23:20;6.80;118.99
66726;HTU21D;53638;51.062;5.804;2023-04-03T09:25:50;6.93;118.99
66726;HTU21D;53638;51.062;5.804;2023-04-03T09:28:18;6.90;118.99
66726;HTU21D;53638;51.062;5.804;2023-04-03T09:30:44;6.94;118.99
66726;HTU21D;53638;51.062;5.804;2023-04-03T09:33:12;7.05;118.99
66726;HTU21D;53638;51.062;5.804;2023-04-03T09:35:40;7.10;118.99
66726;HTU21D;53638;51.062;5.804;2023-04-03T09:40:38;7.27;118.99
66726;HTU21D;53638;51.062;5.804;2023-04-03T09:43:21;7.34;118.99
66726;HTU21D;53638;51.062;5.804;2023-04-03T09:45:49;7.37;118.99
66726;HTU21D;53638;51.062;5.804;2023-04-03T09:48:21;7.42;118.99
66726;HTU21D;53638;51.062;5.804;2023-04-03T09:56:00;7.61;118.99
66726;HTU21D;53638;51.062;5.804;2023-04-03T09:58:30;7.73;118.99
66726;HTU21D;53638;51.062;5.804;2023-04-03T10:01:01;7.78;118.99
66726;HTU21D;53638;51.062;5.804;2023-04-03T10:03:29;7.86;118.99
66726;HTU21D;53638;51.062;5.804;2023-04-03T10:05:56;7.97;118.99
66726;HTU21D;53638;51.062;5.804;2023-04-03T10:08:26;8.05;118.99
66726;HTU21D;53638;51.062;5.804;2023-04-03T10:11:08;8.12;118.99
66726;HTU21D;53638;51.062;5.804;2023-04-03T10:13:35;8.15;118.99
66726;HTU21D;53638;51.062;5.804;2023-04-03T10:16:07;8.30;118.99
66726;HTU21D;53638;51.062;5.804;2023-04-03T10:18:39;8.36;118.99
66726;HTU21D;53638;51.062;5.804;2023-04-03T10:21:15;8.42;118.99
66726;HTU21D;53638;51.062;5.804;2023-04-03T10:23:51;8.43;118.99
66726;HTU21D;53638;51.062;5.804;2023-04-03T10:29:21;8.62;118.99
66726;HTU21D;53638;51.062;5.804;2023-04-03T10:32:01;8.67;118.99
66726;HTU21D;53638;51.062;5.804;2023-04-03T10:34:33;8.68;118.99
66726;HTU21D;53638;51.062;5.804;2023-04-03T10:37:18;8.71;118.15
66726;HTU21D;53638;51.062;5.804;2023-04-03T10:39:57;8.80;118.99
66726;HTU21D;53638;51.062;5.804;2023-04-03T10:42:49;8.89;118.99
66726;HTU21D;53638;51.062;5.804;2023-04-03T10:45:26;8.95;118.99
66726;HTU21D;53638;51.062;5.804;2023-04-03T10:53:22;9.35;118.99
66726;HTU21D;53638;51.062;5.804;2023-04-03T10:56:11;9.54;118.99
66726;HTU21D;53638;51.062;5.804;2023-04-03T10:58:43;9.77;118.99
66726;HTU21D;53638;51.062;5.804;2023-04-03T11:01:16;9.99;118.99
66726;HTU21D;53638;51.062;5.804;2023-04-03T11:03:51;10.09;118.31
66726;HTU21D;53638;51.062;5.804;2023-04-03T11:06:22;10.25;118.99
66726;HTU21D;53638;51.062;5.804;2023-04-03T11:08:57;11.71;118.99
66726;HTU21D;53638;51.062;5.804;2023-04-03T11:11:27;14.52;109.01
66726;HTU21D;53638;51.062;5.804;2023-04-03T11:14:08;16.99;95.90
66726;HTU21D;53638;51.062;5.804;2023-04-03T11:16:42;18.78;86.53
66726;HTU21D;53638;51.062;5.804;2023-04-03T11:19:21;19.85;77.76
66726;HTU21D;53638;51.062;5.804;2023-04-03T11:22:00;20.60;76.92
66726;HTU21D;53638;51.062;5.804;2023-04-03T11:24:32;21.48;73.95
66726;HTU21D;53638;51.062;5.804;2023-04-03T11:27:00;22.04;69.04
66726;HTU21D;53638;51.062;5.804;2023-04-03T11:29:34;22.78;67.11
66726;HTU21D;53638;51.062;5.804;2023-04-03T11:32:20;23.37;64.87
66726;HTU21D;53638;51.062;5.804;2023-04-03T11:34:56;23.94;62.82
66726;HTU21D;53638;51.062;5.804;2023-04-03T11:37:31;24.50;61.90
66726;HTU21D;53638;51.062;5.804;2023-04-03T11:40:02;24.58;60.59
66726;HTU21D;53638;51.062;5.804;2023-04-03T11:42:36;24.58;61.44
66726;HTU21D;53638;51.062;5.804;2023-04-03T11:47:51;24.89;58.97
66726;HTU21D;53638;51.062;5.804;2023-04-03T11:50:31;24.51;57.02
66726;HTU21D;53638;51.062;5.804;2023-04-03T12:05:51;26.36;56.26
66726;HTU21D;53638;51.062;5.804;2023-04-03T12:13:36;27.50;52.37
66726;HTU21D;53638;51.062;5.804;2023-04-03T12:16:05;27.40;54.03
66726;HTU21D;53638;51.062;5.804;2023-04-03T12:35:02;28.41;51.40
66726;HTU21D;53638;51.062;5.804;2023-04-03T12:40:34;28.34;49.71
66726;HTU21D;53638;51.062;5.804;2023-04-03T12:48:29;28.64;51.30
66726;HTU21D;53638;51.062;5.804;2023-04-03T12:50:58;29.02;51.82
66726;HTU21D;53638;51.062;5.804;2023-04-03T12:53:27;28.98;50.92
66726;HTU21D;53638;51.062;5.804;2023-04-03T12:55:57;29.05;50.47
66726;HTU21D;53638;51.062;5.804;2023-04-03T12:58:26;29.07;52.31
66726;HTU21D;53638;51.062;5.804;2023-04-03T13:01:04;28.47;50.66
66726;HTU21D;53638;51.062;5.804;2023-04-03T13:03:39;28.05;49.54
66726;HTU21D;53638;51.062;5.804;2023-04-03T13:06:06;28.78;50.86
66726;HTU21D;53638;51.062;5.804;2023-04-03T13:08:32;29.44;50.36
66726;HTU21D;53638;51.062;5.804;2023-04-03T13:11:03;29.88;48.84
66726;HTU21D;53638;51.062;5.804;2023-04-03T13:13:29;30.49;47.70
66726;HTU21D;53638;51.062;5.804;2023-04-03T13:15:57;30.61;47.34
66726;HTU21D;53638;51.062;5.804;2023-04-03T13:18:33;30.37;46.71
66726;HTU21D;53638;51.062;5.804;2023-04-03T13:21:05;30.67;51.91
66726;HTU21D;53638;51.062;5.804;2023-04-03T13:23:34;30.71;48.96
66726;HTU21D;53638;51.062;5.804;2023-04-03T13:26:01;30.72;49.29
66726;HTU21D;53638;51.062;5.804;2023-04-03T13:28:31;30.35;45.93
66726;HTU21D;53638;51.062;5.804;2023-04-03T13:31:05;29.64;45.73
66726;HTU21D;53638;51.062;5.804;2023-04-03T13:33:35;29.59;46.18
66726;HTU21D;53638;51.062;5.804;2023-04-03T13:36:18;30.22;47.59
66726;HTU21D;53638;51.062;5.804;2023-04-03T13:38:45;30.55;46.31
66726;HTU21D;53638;51.062;5.804;2023-04-03T13:41:26;30.74;47.93
66726;HTU21D;53638;51.062;5.804;2023-04-03T13:43:52;30.62;47.15
66726;HTU21D;53638;51.062;5.804;2023-04-03T13:48:49;30.84;45.95
66726;HTU21D;53638;51.062;5.804;2023-04-03T13:51:22;30.30;46.09
66726;HTU21D;53638;51.062;5.804;2023-04-03T13:53:55;30.45;45.93
66726;HTU21D;53638;51.062;5.804;2023-04-03T13:56:30;31.02;44.06
66726;HTU21D;53638;51.062;5.804;2023-04-03T13:59:05;31.55;46.03
66726;HTU21D;53638;51.062;5.804;2023-04-03T14:01:40;31.84;45.06
66726;HTU21D;53638;51.062;5.804;2023-04-03T14:04:23;31.90;44.89
66726;HTU21D;53638;51.062;5.804;2023-04-03T14:06:50;31.28;44.86
66726;HTU21D;53638;51.062;5.804;2023-04-03T14:09:19;31.09;44.64
66726;HTU21D;53638;51.062;5.804;2023-04-03T14:11:46;31.36;44.09
66726;HTU21D;53638;51.062;5.804;2023-04-03T14:14:18;31.27;45.06
66726;HTU21D;53638;51.062;5.804;2023-04-03T14:16:52;31.33;45.96
66726;HTU21D;53638;51.062;5.804;2023-04-03T14:19:24;31.12;42.16
66726;HTU21D;53638;51.062;5.804;2023-04-03T14:21:51;30.72;45.70
66726;HTU21D;53638;51.062;5.804;2023-04-03T14:24:18;30.74;46.96
66726;HTU21D;53638;51.062;5.804;2023-04-03T14:26:45;30.87;45.84
66726;HTU21D;53638;51.062;5.804;2023-04-03T14:29:13;30.80;44.49
66726;HTU21D;53638;51.062;5.804;2023-04-03T14:31:41;30.51;44.88
66726;HTU21D;53638;51.062;5.804;2023-04-03T14:34:10;30.38;45.41
66726;HTU21D;53638;51.062;5.804;2023-04-03T14:36:38;29.91;47.68
66726;HTU21D;53638;51.062;5.804;2023-04-03T14:39:06;30.02;45.76
66726;HTU21D;53638;51.062;5.804;2023-04-03T14:41:32;30.03;46.24
66726;HTU21D;53638;51.062;5.804;2023-04-03T14:43:58;30.45;47.03
66726;HTU21D;53638;51.062;5.804;2023-04-03T14:46:31;30.78;46.11
66726;HTU21D;53638;51.062;5.804;2023-04-03T14:48:58;30.69;45.51
66726;HTU21D;53638;51.062;5.804;2023-04-03T14:51:24;30.82;45.09
66726;HTU21D;53638;51.062;5.804;2023-04-03T14:53:51;30.70;45.72
66726;HTU21D;53638;51.062;5.804;2023-04-03T14:56:23;30.54;45.34
66726;HTU21D;53638;51.062;5.804;2023-04-03T14:58:55;30.64;44.96
66726;HTU21D;53638;51.062;5.804;2023-04-03T15:01:22;30.42;45.48
66726;HTU21D;53638;51.062;5.804;2023-04-03T15:03:48;30.21;46.20
66726;HTU21D;53638;51.062;5.804;2023-04-03T15:06:14;29.90;48.06
66726;HTU21D;53638;51.062;5.804;2023-04-03T15:08:42;30.04;46.73
66726;HTU21D;53638;51.062;5.804;2023-04-03T15:11:12;30.07;46.06
66726;HTU21D;53638;51.062;5.804;2023-04-03T15:13:38;29.70;47.39
66726;HTU21D;53638;51.062;5.804;2023-04-03T15:16:10;29.77;46.89
66726;HTU21D;53638;51.062;5.804;2023-04-03T15:18:38;30.01;47.79
66726;HTU21D;53638;51.062;5.804;2023-04-03T15:21:05;30.11;46.86
66726;HTU21D;53638;51.062;5.804;2023-04-03T15:23:31;29.74;45.61
66726;HTU21D;53638;51.062;5.804;2023-04-03T15:25:57;29.14;43.51
66726;HTU21D;53638;51.062;5.804;2023-04-03T15:28:26;28.60;47.56
66726;HTU21D;53638;51.062;5.804;2023-04-03T15:30:53;28.83;50.34
66726;HTU21D;53638;51.062;5.804;2023-04-03T15:33:20;28.69;47.15
66726;HTU21D;53638;51.062;5.804;2023-04-03T15:35:46;28.26;45.28
66726;HTU21D;53638;51.062;5.804;2023-04-03T15:38:12;27.89;48.56
66726;HTU21D;53638;51.062;5.804;2023-04-03T15:40:38;27.99;48.83
66726;HTU21D;53638;51.062;5.804;2023-04-03T15:43:06;28.41;48.29
66726;HTU21D;53638;51.062;5.804;2023-04-03T15:45:34;28.98;47.26
66726;HTU21D;53638;51.062;5.804;2023-04-03T15:48:02;28.68;43.56
66726;HTU21D;53638;51.062;5.804;2023-04-03T15:50:29;27.99;44.82
66726;HTU21D;53638;51.062;5.804;2023-04-03T15:52:54;27.30;47.49
66726;HTU21D;53638;51.062;5.804;2023-04-03T15:55:22;27.19;47.65
66726;HTU21D;53638;51.062;5.804;2023-04-03T15:57:48;27.28;48.76
66726;HTU21D;53638;51.062;5.804;2023-04-03T16:00:15;27.38;49.02
66726;HTU21D;53638;51.062;5.804;2023-04-03T16:02:43;27.44;49.70
66726;HTU21D;53638;51.062;5.804;2023-04-03T16:05:10;27.37;49.79
66726;HTU21D;53638;51.062;5.804;2023-04-03T16:07:38;27.28;48.92
66726;HTU21D;53638;51.062;5.804;2023-04-03T16:10:05;27.15;50.59
66726;HTU21D;53638;51.062;5.804;2023-04-03T16:12:31;26.81;48.24
66726;HTU21D;53638;51.062;5.804;2023-04-03T16:14:57;26.45;52.20
66726;HTU21D;53638;51.062;5.804;2023-04-03T16:17:23;26.38;50.02
66726;HTU21D;53638;51.062;5.804;2023-04-03T16:19:49;26.26;51.46
66726;HTU21D;53638;51.062;5.804;2023-04-03T16:22:15;26.25;50.38
66726;HTU21D;53638;51.062;5.804;2023-04-03T16:24:41;26.13;50.79
66726;HTU21D;53638;51.062;5.804;2023-04-03T16:27:07;25.74;49.25
66726;HTU21D;53638;51.062;5.804;2023-04-03T16:29:33;25.23;50.77
66726;HTU21D;53638;51.062;5.804;2023-04-03T16:31:59;24.76;48.48
66726;HTU21D;53638;51.062;5.804;2023-04-03T16:34:26;24.58;52.24
66726;HTU21D;53638;51.062;5.804;2023-04-03T16:36:52;24.71;52.95
66726;HTU21D;53638;51.062;5.804;2023-04-03T16:39:18;25.06;51.86
66726;HTU21D;53638;51.062;5.804;2023-04-03T16:41:44;24.91;52.11
66726;HTU21D;53638;51.062;5.804;2023-04-03T16:44:10;24.68;48.69